createdAt,value
2022-09-15T00:04:37.444Z,98747.06
2022-09-15T00:09:38.901Z,98737.13
2022-09-15T00:14:40.394Z,98730.38
2022-09-15T00:19:41.887Z,98718.56
2022-09-15T00:24:43.310Z,98702.38
2022-09-15T00:29:44.736Z,98706.03
2022-09-15T00:34:46.140Z,98704.97
2022-09-15T00:39:48.382Z,98703.88
2022-09-15T00:44:52.776Z,98708.75
2022-09-15T00:49:59.643Z,98698.00
2022-09-15T00:55:08.371Z,98725.78
2022-09-15T01:00:12.161Z,98725.22
2022-09-15T01:05:17.504Z,98725.19
2022-09-15T01:10:40.048Z,98722.28
2022-09-15T01:15:53.285Z,98715.56
2022-09-15T01:21:05.024Z,98716.44
2022-09-15T01:26:30.106Z,98723.94
2022-09-15T01:32:06.565Z,98694.50
2022-09-15T01:37:14.843Z,98701.22
2022-09-15T01:42:18.241Z,98715.88
2022-09-15T01:47:21.121Z,98711.28
2022-09-15T01:52:24.791Z,98702.44
2022-09-15T01:57:27.404Z,98706.56
2022-09-15T02:02:42.943Z,98709.09
2022-09-15T02:08:10.763Z,98712.44
2022-09-15T02:13:30.913Z,98715.38
2022-09-15T02:18:56.285Z,98713.47
2022-09-15T02:24:05.753Z,98734.28
2022-09-15T02:29:13.124Z,98746.88
2022-09-15T02:34:23.913Z,98732.53
2022-09-15T02:39:32.161Z,98748.44
2022-09-15T02:44:33.633Z,98738.81
2022-09-15T02:49:35.033Z,98729.75
2022-09-15T02:54:36.492Z,98743.56
2022-09-15T02:59:56.256Z,98738.34
2022-09-15T03:04:57.755Z,98730.16
2022-09-15T03:09:59.310Z,98730.69
2022-09-15T03:15:00.696Z,98734.31
2022-09-15T03:20:04.521Z,98738.72
2022-09-15T03:25:06.619Z,98760.94
2022-09-15T03:30:09.320Z,98763.66
2022-09-15T03:35:10.751Z,98789.22
2022-09-15T03:40:12.197Z,98797.28
2022-09-15T03:45:13.796Z,98798.16
2022-09-15T03:50:15.209Z,98802.84
2022-09-15T03:55:17.192Z,98818.66
2022-09-15T04:00:19.063Z,98840.81
2022-09-15T04:05:20.565Z,98832.28
2022-09-15T04:10:24.521Z,98813.22
2022-09-15T04:15:25.932Z,98843.09
2022-09-15T04:20:27.428Z,98836.78
2022-09-15T04:25:29.528Z,98841.56
2022-09-15T04:30:30.955Z,98857.19
2022-09-15T04:35:32.352Z,98849.00
2022-09-15T04:40:33.869Z,98849.59
2022-09-15T04:45:35.394Z,98856.91
2022-09-15T04:50:36.799Z,98864.63
2022-09-15T04:55:38.716Z,98881.13
2022-09-15T05:00:43.397Z,98869.47
2022-09-15T05:05:44.932Z,98884.69
2022-09-15T05:10:46.349Z,98890.03
2022-09-15T05:15:47.914Z,98883.66
2022-09-15T05:20:49.427Z,98872.41
2022-09-15T05:26:01.755Z,98873.72
2022-09-15T05:31:12.110Z,98891.25
2022-09-15T05:36:15.164Z,98905.63
2022-09-15T05:41:19.118Z,98908.63
2022-09-15T05:46:20.682Z,98902.16
2022-09-15T05:51:22.957Z,98892.41
2022-09-15T05:56:24.420Z,98899.91
2022-09-15T06:01:31.001Z,98905.94
2022-09-15T06:06:32.632Z,98904.31
2022-09-15T06:11:34.086Z,98912.84
2022-09-15T06:16:36.005Z,98907.22
2022-09-15T06:21:37.609Z,98907.88
2022-09-15T06:26:39.045Z,98913.22
2022-09-15T06:31:40.633Z,98918.91
2022-09-15T06:36:42.209Z,98916.03
2022-09-15T06:42:01.395Z,98914.75
2022-09-15T06:47:04.144Z,98920.13
2022-09-15T06:52:06.256Z,98927.41
2022-09-15T06:57:08.078Z,98943.63
2022-09-15T07:02:09.857Z,98929.63
2022-09-15T07:07:11.379Z,98943.00
2022-09-15T07:12:12.804Z,98940.63
2022-09-15T07:17:14.214Z,98944.16
2022-09-15T07:22:15.611Z,98964.75
2022-09-15T07:27:17.033Z,98969.66
2022-09-15T07:32:18.433Z,98966.66
2022-09-15T07:37:19.860Z,98981.72
2022-09-15T07:42:21.293Z,98987.38
2022-09-15T07:47:23.201Z,98987.84
2022-09-15T07:52:24.669Z,99003.94
2022-09-15T07:57:27.239Z,99018.31
2022-09-15T08:02:28.737Z,99011.28
2022-09-15T08:07:30.598Z,99014.59
2022-09-15T08:12:32.063Z,99031.38
2022-09-15T08:17:34.809Z,99038.06
2022-09-15T08:22:36.641Z,99039.09
2022-09-15T08:27:38.317Z,99032.91
2022-09-15T08:32:39.721Z,99030.81
2022-09-15T08:37:41.147Z,99015.00
2022-09-15T08:42:45.020Z,99024.47
2022-09-15T08:47:48.994Z,99013.75
2022-09-15T08:53:00.325Z,99001.50
2022-09-15T08:58:01.821Z,99005.84
2022-09-15T09:03:39.808Z,98993.88
2022-09-15T09:09:12.948Z,98987.88
2022-09-15T09:14:26.353Z,98984.25
2022-09-15T09:20:05.023Z,98975.59
2022-09-15T09:25:26.560Z,98994.00
2022-09-15T09:30:32.999Z,98996.56
2022-09-15T09:35:50.037Z,98979.88
2022-09-15T09:40:52.169Z,98988.09
2022-09-15T09:45:53.728Z,98992.72
2022-09-15T09:50:55.778Z,99012.22
2022-09-15T09:56:12.541Z,99007.63
2022-09-15T10:01:20.258Z,99002.53
2022-09-15T10:06:22.730Z,99004.69
2022-09-15T10:11:40.817Z,98987.41
2022-09-15T10:16:43.251Z,98991.56
2022-09-15T10:21:45.141Z,98971.84
2022-09-15T10:26:46.622Z,98985.78
2022-09-15T10:31:48.302Z,98995.13
2022-09-15T10:36:49.808Z,98974.97
2022-09-15T10:42:33.245Z,98977.69
2022-09-15T10:48:23.424Z,98977.47
2022-09-15T10:53:42.977Z,98981.28
2022-09-15T10:58:50.512Z,98967.84
2022-09-15T11:04:42.148Z,98962.97
2022-09-15T11:09:46.403Z,98972.03
2022-09-15T11:15:03.789Z,98965.69
2022-09-15T11:20:42.871Z,98957.72
2022-09-15T11:26:00.248Z,98949.69
2022-09-15T11:31:09.283Z,98961.09
2022-09-15T11:36:15.160Z,98954.34
2022-09-15T11:41:40.661Z,98953.91
2022-09-15T11:47:19.295Z,98950.34
2022-09-15T11:52:29.276Z,98949.69
2022-09-15T11:57:37.092Z,98937.91
2022-09-15T12:02:59.803Z,98929.88
2022-09-15T12:08:06.709Z,98936.41
2022-09-15T12:13:18.590Z,98942.88
2022-09-15T12:18:52.731Z,98929.47
2022-09-15T12:24:12.424Z,98930.09
2022-09-15T12:29:26.032Z,98930.66
2022-09-15T12:34:31.439Z,98927.66
2022-09-15T12:39:44.487Z,98921.38
2022-09-15T12:44:50.988Z,98916.75
2022-09-15T12:49:56.371Z,98908.09
2022-09-15T12:55:03.560Z,98917.56
2022-09-15T13:00:20.015Z,98917.81
2022-09-15T13:05:43.048Z,98907.06
2022-09-15T13:11:02.546Z,98913.19
2022-09-15T13:16:12.038Z,98904.13
2022-09-15T13:21:17.596Z,98904.97
2022-09-15T13:26:26.201Z,98905.41
2022-09-15T13:31:34.391Z,98898.53
2022-09-15T13:42:46.244Z,98892.41
2022-09-15T13:47:51.073Z,98888.81
2022-09-15T13:53:07.596Z,98891.94
2022-09-15T14:03:53.182Z,98894.88
2022-09-15T14:08:58.661Z,98894.88
2022-09-15T14:14:03.602Z,98884.75
2022-09-15T14:19:30.453Z,98892.31
2022-09-15T14:24:32.196Z,98896.97
2022-09-15T14:29:38.752Z,98902.41
2022-09-15T14:34:42.025Z,98899.41
2022-09-15T14:39:50.117Z,98895.16
2022-09-15T14:50:21.529Z,98888.47
2022-09-15T14:55:54.323Z,98883.44
2022-09-15T15:01:08.001Z,98878.63
2022-09-15T15:06:32.786Z,98885.16
2022-09-15T15:11:36.475Z,98877.56
2022-09-15T15:16:51.860Z,98879.03
2022-09-15T15:22:07.362Z,98881.72
2022-09-15T15:27:40.862Z,98865.91
2022-09-15T15:32:42.865Z,98868.72
2022-09-15T15:37:44.399Z,98872.72
2022-09-15T15:43:07.852Z,98879.16
2022-09-15T15:48:09.935Z,98890.97
2022-09-15T15:53:11.323Z,98887.09
2022-09-15T15:58:14.292Z,98888.69
2022-09-15T16:03:17.283Z,98892.38
2022-09-15T16:08:26.338Z,98890.84
2022-09-15T16:13:28.778Z,98891.44
2022-09-15T16:18:30.197Z,98901.47
2022-09-15T16:23:31.704Z,98889.91
2022-09-15T16:28:33.677Z,98888.22
2022-09-15T16:33:38.143Z,98904.75
2022-09-15T16:38:41.080Z,98914.38
2022-09-15T16:43:43.715Z,98896.97
2022-09-15T16:48:47.206Z,98909.72
2022-09-15T16:53:50.997Z,98907.88
2022-09-15T16:58:58.825Z,98913.06
2022-09-15T17:04:01.781Z,98916.38
2022-09-15T17:09:03.631Z,98918.34
2022-09-15T17:14:05.215Z,98928.69
2022-09-15T17:19:06.657Z,98925.06
2022-09-15T17:24:08.975Z,98930.66
2022-09-15T17:29:10.440Z,98926.09
2022-09-15T17:34:14.378Z,98927.38
2022-09-15T17:39:15.771Z,98929.84
2022-09-15T17:44:17.431Z,98934.41
2022-09-15T17:49:18.830Z,98935.56
2022-09-15T17:54:20.272Z,98946.97
2022-09-15T17:59:21.713Z,98949.97
2022-09-15T18:04:23.110Z,98955.59
2022-09-15T18:09:25.266Z,98950.44
2022-09-15T18:14:26.655Z,98968.53
2022-09-15T18:19:28.055Z,98973.59
2022-09-15T18:24:30.009Z,98973.22
2022-09-15T18:29:31.963Z,98967.88
2022-09-15T18:34:33.512Z,98974.25
2022-09-15T18:39:35.129Z,98983.50
2022-09-15T18:44:36.689Z,98987.16
2022-09-15T18:49:38.133Z,98985.38
2022-09-15T18:54:39.599Z,98993.19
2022-09-15T18:59:41.055Z,98994.44
2022-09-15T19:04:43.584Z,98997.03
2022-09-15T19:09:45.093Z,99001.84
2022-09-15T19:14:46.843Z,99000.59
2022-09-15T19:19:48.485Z,99011.19
2022-09-15T19:24:49.940Z,99025.06
2022-09-15T19:29:51.510Z,99023.94
2022-09-15T19:34:52.937Z,99023.00
2022-09-15T19:39:54.773Z,99019.13
2022-09-15T19:44:56.234Z,99019.00
2022-09-15T19:49:57.896Z,99014.94
2022-09-15T19:54:59.409Z,99012.94
2022-09-15T20:00:00.895Z,99023.03
2022-09-15T20:10:21.114Z,99023.88
2022-09-15T20:15:22.553Z,99038.72
2022-09-15T20:20:24.160Z,99027.84
2022-09-15T20:25:25.627Z,99030.66
2022-09-15T20:30:27.076Z,99030.69
2022-09-15T20:35:28.668Z,99032.03
2022-09-15T20:40:31.137Z,99033.44
2022-09-15T20:45:37.001Z,99030.72
2022-09-15T20:50:38.643Z,99028.88
2022-09-15T20:55:40.414Z,99026.47
2022-09-15T21:00:41.845Z,99023.56
2022-09-15T21:05:43.898Z,99026.84
2022-09-15T21:10:45.625Z,99030.72
2022-09-15T21:15:58.274Z,99043.28
2022-09-15T21:21:11.751Z,99036.66
2022-09-15T21:26:16.502Z,99047.03
2022-09-15T21:31:20.489Z,99048.41
2022-09-15T21:36:24.530Z,99039.06
2022-09-15T21:41:32.161Z,99049.53
2022-09-15T21:46:33.743Z,99055.00
2022-09-15T21:51:36.292Z,99055.38
2022-09-15T21:56:37.842Z,99058.84
2022-09-15T22:01:39.473Z,99065.25
2022-09-15T22:06:41.580Z,99061.19
2022-09-15T22:11:43.436Z,99068.66
2022-09-15T22:16:44.935Z,99073.75
2022-09-15T22:21:46.441Z,99078.91
2022-09-15T22:26:47.874Z,99085.31
2022-09-15T22:31:49.446Z,99089.75
2022-09-15T22:36:50.915Z,99094.34
2022-09-15T22:41:52.316Z,99093.84
2022-09-15T22:46:53.896Z,99102.81
2022-09-15T22:51:55.301Z,99104.34
2022-09-15T22:56:56.746Z,99106.72
2022-09-15T23:01:58.183Z,99103.00
2022-09-15T23:06:59.667Z,99106.69
2022-09-15T23:12:01.199Z,99106.00
2022-09-15T23:17:02.635Z,99096.34
2022-09-15T23:22:04.061Z,99109.41
2022-09-15T23:27:05.732Z,99098.13
2022-09-15T23:32:07.212Z,99098.13
2022-09-15T23:37:08.604Z,99102.72
2022-09-15T23:42:10.423Z,99103.94
2022-09-15T23:47:11.855Z,99103.22
2022-09-15T23:52:13.285Z,99111.72
2022-09-15T23:57:14.691Z,99113.44
